createdAt,value
2023-05-22T00:02:01.088Z,23.20
2023-05-22T00:04:30.965Z,24.57
2023-05-22T00:06:58.942Z,20.10
2023-05-22T00:09:27.309Z,21.73
2023-05-22T00:11:55.364Z,21.23
2023-05-22T00:14:23.134Z,21.63
2023-05-22T00:16:51.186Z,20.43
2023-05-22T00:19:23.142Z,19.50
2023-05-22T00:21:54.278Z,23.73
2023-05-22T00:24:22.098Z,19.43
2023-05-22T00:26:49.880Z,18.83
2023-05-22T00:29:19.592Z,20.07
2023-05-22T00:31:47.542Z,23.53
2023-05-22T00:34:15.701Z,19.67
2023-05-22T00:36:45.610Z,20.37
2023-05-22T00:39:15.023Z,22.77
2023-05-22T00:41:42.767Z,22.00
2023-05-22T00:44:11.770Z,24.03
2023-05-22T00:46:39.769Z,19.87
2023-05-22T00:49:07.541Z,20.90
2023-05-22T00:51:35.456Z,22.50
2023-05-22T00:54:03.316Z,20.57
2023-05-22T00:56:32.888Z,22.87
2023-05-22T00:59:00.862Z,22.17
2023-05-22T01:01:33.426Z,20.80
2023-05-22T01:04:05.178Z,22.37
2023-05-22T01:06:33.603Z,25.03
2023-05-22T01:09:01.385Z,19.40
2023-05-22T01:11:38.611Z,22.07
2023-05-22T01:14:12.346Z,22.23
2023-05-22T01:16:48.483Z,24.27
2023-05-22T01:19:37.464Z,22.27
2023-05-22T01:22:16.429Z,22.47
2023-05-22T01:25:00.509Z,23.70
2023-05-22T01:28:10.143Z,22.07
2023-05-22T01:30:49.750Z,21.93
2023-05-22T01:33:19.405Z,22.23
2023-05-22T01:35:54.185Z,23.90
2023-05-22T01:38:22.844Z,24.10
2023-05-22T01:40:51.088Z,20.93
2023-05-22T01:43:18.915Z,21.13
2023-05-22T01:45:48.444Z,20.10
2023-05-22T01:48:16.277Z,19.90
2023-05-22T01:50:45.388Z,21.57
2023-05-22T01:53:19.329Z,21.63
2023-05-22T01:55:55.744Z,22.33
2023-05-22T01:58:30.295Z,19.33
2023-05-22T02:01:03.483Z,19.97
2023-05-22T02:03:33.259Z,19.30
2023-05-22T02:06:04.350Z,20.90
2023-05-22T02:08:32.545Z,19.70
2023-05-22T02:11:02.985Z,17.80
2023-05-22T02:13:31.707Z,19.40
2023-05-22T02:16:04.092Z,17.83
2023-05-22T02:18:32.322Z,18.87
2023-05-22T02:21:02.747Z,20.37
2023-05-22T02:23:33.244Z,17.33
2023-05-22T02:26:01.244Z,17.50
2023-05-22T02:28:29.027Z,16.27
2023-05-22T02:30:56.905Z,17.43
2023-05-22T02:33:27.102Z,18.60
2023-05-22T02:35:55.350Z,17.60
2023-05-22T02:38:24.954Z,17.40
2023-05-22T02:40:53.243Z,16.37
2023-05-22T02:43:22.457Z,17.47
2023-05-22T02:45:51.013Z,17.70
2023-05-22T02:48:18.849Z,18.73
2023-05-22T02:50:49.007Z,18.40
2023-05-22T02:53:17.200Z,16.40
2023-05-22T02:55:45.905Z,18.30
2023-05-22T02:58:14.560Z,16.93
2023-05-22T03:00:43.233Z,18.10
2023-05-22T03:03:11.917Z,17.57
2023-05-22T03:05:40.125Z,20.17
2023-05-22T03:08:11.056Z,19.97
2023-05-22T03:10:40.141Z,18.33
2023-05-22T03:13:08.327Z,18.07
2023-05-22T03:15:36.118Z,18.20
2023-05-22T03:18:11.838Z,17.77
2023-05-22T03:20:41.833Z,18.10
2023-05-22T03:23:12.862Z,18.70
2023-05-22T03:25:40.760Z,19.97
2023-05-22T03:28:08.926Z,18.63
2023-05-22T03:30:42.016Z,19.77
2023-05-22T03:33:15.982Z,19.17
2023-05-22T03:35:44.944Z,20.70
2023-05-22T03:38:14.361Z,18.87
2023-05-22T03:40:42.276Z,19.33
2023-05-22T03:43:11.009Z,21.40
2023-05-22T03:45:39.791Z,21.20
2023-05-22T03:48:07.762Z,18.83
2023-05-22T03:50:35.839Z,20.57
2023-05-22T03:53:03.656Z,19.10
2023-05-22T03:55:33.650Z,21.50
2023-05-22T03:58:01.389Z,19.10
2023-05-22T04:00:29.232Z,20.70
2023-05-22T04:02:58.740Z,23.27
2023-05-22T04:05:26.827Z,20.40
2023-05-22T04:07:54.691Z,22.03
2023-05-22T04:10:23.690Z,23.20
2023-05-22T04:12:53.208Z,24.70
2023-05-22T04:15:21.872Z,24.03
2023-05-22T04:17:50.089Z,22.67
2023-05-22T04:20:18.297Z,20.43
2023-05-22T04:22:46.492Z,22.07
2023-05-22T04:25:14.626Z,21.87
2023-05-22T04:27:42.426Z,23.43
2023-05-22T04:30:12.140Z,23.13
2023-05-22T04:32:40.861Z,20.77
2023-05-22T04:35:10.088Z,25.33
2023-05-22T04:37:37.903Z,25.17
2023-05-22T04:40:07.730Z,23.40
2023-05-22T04:42:35.641Z,22.13
2023-05-22T04:45:04.673Z,21.03
2023-05-22T04:47:34.048Z,21.83
2023-05-22T04:50:07.931Z,22.40
2023-05-22T04:52:36.350Z,21.83
2023-05-22T04:55:05.953Z,24.73
2023-05-22T04:57:34.095Z,25.57
2023-05-22T05:00:04.827Z,25.80
2023-05-22T05:02:36.117Z,24.00
2023-05-22T05:05:04.022Z,23.73
2023-05-22T05:07:31.879Z,24.53
2023-05-22T05:09:59.707Z,22.00
2023-05-22T05:12:28.231Z,22.93
2023-05-22T05:14:56.295Z,22.53
2023-05-22T05:17:24.111Z,24.43
2023-05-22T05:19:53.594Z,24.97
2023-05-22T05:22:21.398Z,23.07
2023-05-22T05:24:49.164Z,24.20
2023-05-22T05:27:17.963Z,22.23
2023-05-22T05:29:49.110Z,22.00
2023-05-22T05:32:23.598Z,25.57
2023-05-22T05:34:57.058Z,29.83
2023-05-22T05:37:45.615Z,23.70
2023-05-22T05:40:14.951Z,24.07
2023-05-22T05:42:47.460Z,27.33
2023-05-22T05:45:16.632Z,23.67
2023-05-22T05:47:44.488Z,24.87
2023-05-22T05:50:15.535Z,25.73
2023-05-22T05:52:44.035Z,21.73
2023-05-22T05:55:16.778Z,24.40
2023-05-22T05:57:45.023Z,25.70
2023-05-22T06:00:20.029Z,26.03
2023-05-22T06:02:50.725Z,26.20
2023-05-22T06:05:46.925Z,24.53
2023-05-22T06:08:24.426Z,27.67
2023-05-22T06:10:52.590Z,26.73
2023-05-22T06:13:36.984Z,29.70
2023-05-22T06:16:06.732Z,34.43
2023-05-22T06:18:37.126Z,31.73
2023-05-22T06:21:08.055Z,28.33
2023-05-22T06:23:35.937Z,27.50
2023-05-22T06:26:05.091Z,29.07
2023-05-22T06:28:33.335Z,33.40
2023-05-22T06:31:02.799Z,36.23
2023-05-22T06:33:32.064Z,43.00
2023-05-22T06:36:00.010Z,42.70
2023-05-22T06:38:29.336Z,35.67
2023-05-22T06:40:57.202Z,40.97
2023-05-22T06:43:27.708Z,41.27
2023-05-22T06:46:00.794Z,38.77
2023-05-22T06:48:47.376Z,42.60
2023-05-22T06:51:21.866Z,42.87
2023-05-22T06:53:54.475Z,38.23
2023-05-22T06:56:26.002Z,50.80
2023-05-22T06:58:57.672Z,61.20
2023-05-22T07:01:38.362Z,54.23
2023-05-22T07:04:13.186Z,41.57
2023-05-22T07:06:58.701Z,32.30
2023-05-22T07:09:28.072Z,31.10
2023-05-22T07:11:55.913Z,34.63
2023-05-22T07:14:24.087Z,27.60
2023-05-22T07:16:52.055Z,36.27
2023-05-22T07:19:27.298Z,34.63
2023-05-22T07:22:00.097Z,35.43
2023-05-22T07:24:29.904Z,33.67
2023-05-22T07:26:57.893Z,36.20
2023-05-22T07:29:26.439Z,32.83
2023-05-22T07:31:55.853Z,33.20
2023-05-22T07:34:31.725Z,34.67
2023-05-22T07:36:59.940Z,36.30
2023-05-22T07:39:29.197Z,37.80
2023-05-22T07:41:59.454Z,40.27
2023-05-22T07:44:28.986Z,45.17
2023-05-22T07:46:56.830Z,38.03
2023-05-22T07:49:26.507Z,41.73
2023-05-22T07:51:54.417Z,53.07
2023-05-22T07:54:25.072Z,64.13
2023-05-22T07:56:56.145Z,63.37
2023-05-22T07:59:25.540Z,61.23
2023-05-22T08:01:58.416Z,60.07
2023-05-22T08:04:26.594Z,50.40
2023-05-22T08:06:54.493Z,57.40
2023-05-22T08:09:22.488Z,53.47
2023-05-22T08:11:50.445Z,54.47
2023-05-22T08:14:19.904Z,61.97
2023-05-22T08:16:47.820Z,65.87
2023-05-22T08:19:16.029Z,64.67
2023-05-22T08:21:43.864Z,59.97
2023-05-22T08:24:11.796Z,56.37
2023-05-22T08:26:40.954Z,63.07
2023-05-22T08:29:08.959Z,55.83
2023-05-22T08:31:38.272Z,67.83
2023-05-22T08:34:07.451Z,87.40
2023-05-22T08:36:35.550Z,88.63
2023-05-22T08:39:03.636Z,90.90
2023-05-22T08:41:31.821Z,72.60
2023-05-22T08:43:59.636Z,73.77
2023-05-22T08:46:29.191Z,78.57
2023-05-22T08:48:59.216Z,78.23
2023-05-22T08:51:31.384Z,76.47
2023-05-22T08:54:00.261Z,79.13
2023-05-22T08:56:33.533Z,71.33
2023-05-22T08:59:04.781Z,63.37
2023-05-22T09:01:33.658Z,62.37
2023-05-22T09:04:05.923Z,67.10
2023-05-22T09:06:34.677Z,74.87
2023-05-22T09:09:03.837Z,81.83
2023-05-22T09:11:31.883Z,74.20
2023-05-22T09:14:07.979Z,70.57
2023-05-22T09:16:45.252Z,71.37
2023-05-22T09:19:15.260Z,64.37
2023-05-22T09:21:44.610Z,54.13
2023-05-22T09:24:12.765Z,49.53
2023-05-22T09:26:41.241Z,50.50
2023-05-22T09:29:09.425Z,50.43
2023-05-22T09:31:42.126Z,48.77
2023-05-22T09:34:10.762Z,49.73
2023-05-22T09:36:40.310Z,49.80
2023-05-22T09:39:08.569Z,54.43
2023-05-22T09:41:38.641Z,52.80
2023-05-22T09:44:16.960Z,54.47
2023-05-22T09:46:47.785Z,45.83
2023-05-22T09:49:17.112Z,52.00
2023-05-22T09:51:48.911Z,51.07
2023-05-22T09:54:17.934Z,50.80
2023-05-22T09:56:48.648Z,54.73
2023-05-22T09:59:21.729Z,61.27
2023-05-22T10:01:51.509Z,61.57
2023-05-22T10:04:20.175Z,52.70
2023-05-22T10:06:52.969Z,52.73
2023-05-22T10:09:25.904Z,62.07
2023-05-22T10:11:56.175Z,65.73
2023-05-22T10:14:25.590Z,69.67
2023-05-22T10:16:55.117Z,62.33
2023-05-22T10:19:27.153Z,58.17
2023-05-22T10:21:57.924Z,64.70
2023-05-22T10:24:26.194Z,57.90
2023-05-22T10:26:55.362Z,59.27
2023-05-22T10:29:28.917Z,47.30
2023-05-22T10:32:05.918Z,76.90
2023-05-22T10:34:53.310Z,66.40
2023-05-22T10:37:41.471Z,57.93
2023-05-22T10:40:13.104Z,55.67
2023-05-22T10:42:41.520Z,47.13
2023-05-22T10:45:10.218Z,46.00
2023-05-22T10:47:38.380Z,50.73
2023-05-22T10:50:09.583Z,48.67
2023-05-22T10:52:40.059Z,46.53
2023-05-22T10:55:09.302Z,48.87
2023-05-22T10:57:40.458Z,47.90
2023-05-22T11:00:10.684Z,46.50
2023-05-22T11:02:43.791Z,45.70
2023-05-22T11:05:35.546Z,44.87
2023-05-22T11:08:39.745Z,46.03
2023-05-22T11:11:14.653Z,41.87
2023-05-22T11:13:43.687Z,46.47
2023-05-22T11:16:12.442Z,48.63
2023-05-22T11:18:41.093Z,45.10
2023-05-22T11:21:11.682Z,47.53
2023-05-22T11:23:41.169Z,47.87
2023-05-22T11:26:19.983Z,43.80
2023-05-22T11:28:54.922Z,40.80
2023-05-22T11:31:26.408Z,51.73
2023-05-22T11:33:54.659Z,45.80
2023-05-22T11:36:23.532Z,47.73
2023-05-22T11:38:57.912Z,51.10
2023-05-22T11:41:25.709Z,50.00
2023-05-22T11:43:53.543Z,50.33
2023-05-22T11:46:21.472Z,52.13
2023-05-22T11:48:49.483Z,58.47
2023-05-22T11:51:20.549Z,46.90
2023-05-22T11:53:48.755Z,47.93
2023-05-22T11:56:21.555Z,50.47
2023-05-22T11:58:49.557Z,53.13
2023-05-22T12:01:17.619Z,48.67
2023-05-22T12:03:45.460Z,42.07
2023-05-22T12:06:15.824Z,53.63
2023-05-22T12:08:45.494Z,45.67
2023-05-22T12:11:13.928Z,53.10
2023-05-22T12:13:43.184Z,44.40
2023-05-22T12:16:29.157Z,53.20
2023-05-22T12:18:57.124Z,53.63
2023-05-22T12:21:25.008Z,50.73
2023-05-22T12:23:52.894Z,53.00
2023-05-22T12:26:21.446Z,50.07
2023-05-22T12:28:53.937Z,48.10
2023-05-22T12:31:22.654Z,48.27
2023-05-22T12:33:50.635Z,55.20
2023-05-22T12:36:18.560Z,49.27
2023-05-22T12:38:46.509Z,48.50
2023-05-22T12:41:14.326Z,47.07
2023-05-22T12:43:42.442Z,45.33
2023-05-22T12:46:11.798Z,52.67
2023-05-22T12:48:39.555Z,46.10
2023-05-22T12:51:09.288Z,46.10
2023-05-22T12:53:37.115Z,42.87
2023-05-22T12:56:05.948Z,39.50
2023-05-22T12:58:33.755Z,42.43
2023-05-22T13:01:01.533Z,37.43
2023-05-22T13:03:31.433Z,45.13
2023-05-22T13:05:59.632Z,42.83
2023-05-22T13:08:27.552Z,44.37
2023-05-22T13:10:55.470Z,40.73
2023-05-22T13:13:24.167Z,41.77
2023-05-22T13:15:52.013Z,43.23
2023-05-22T13:18:20.028Z,39.97
2023-05-22T13:20:49.601Z,40.30
2023-05-22T13:23:17.491Z,39.80
2023-05-22T13:25:45.318Z,37.97
2023-05-22T13:28:13.140Z,35.90
2023-05-22T13:30:44.158Z,33.87
2023-05-22T13:33:12.344Z,40.97
2023-05-22T13:35:40.525Z,38.57
2023-05-22T13:38:09.925Z,36.50
2023-05-22T13:40:37.795Z,40.10
2023-05-22T13:43:05.618Z,36.00
2023-05-22T13:45:33.438Z,35.60
2023-05-22T13:48:01.503Z,33.90
2023-05-22T13:50:29.409Z,31.97
2023-05-22T13:52:57.575Z,31.87
2023-05-22T13:55:26.790Z,32.10
2023-05-22T13:57:54.808Z,30.40
2023-05-22T14:00:22.867Z,33.03
2023-05-22T14:02:50.892Z,32.33
2023-05-22T14:05:18.859Z,33.17
2023-05-22T14:07:46.704Z,33.30
2023-05-22T14:10:14.653Z,32.27
2023-05-22T14:12:43.903Z,31.17
2023-05-22T14:15:12.047Z,35.07
2023-05-22T14:17:39.962Z,34.60
2023-05-22T14:20:08.926Z,29.53
2023-05-22T14:22:48.030Z,39.10
2023-05-22T14:25:24.431Z,33.70
2023-05-22T14:27:53.682Z,34.63
2023-05-22T14:30:21.485Z,34.43
2023-05-22T14:32:49.334Z,35.63
2023-05-22T14:35:17.683Z,41.23
2023-05-22T14:37:45.561Z,37.57
2023-05-22T14:40:13.591Z,41.33
2023-05-22T14:42:41.355Z,44.73
2023-05-22T14:45:11.731Z,39.33
2023-05-22T14:47:40.786Z,46.97
2023-05-22T14:50:19.207Z,43.77
2023-05-22T14:52:47.944Z,47.50
2023-05-22T14:55:15.986Z,45.07
2023-05-22T14:57:43.736Z,53.33
2023-05-22T15:00:14.479Z,56.77
2023-05-22T15:02:42.380Z,50.77
2023-05-22T15:05:10.769Z,54.90
2023-05-22T15:07:44.464Z,53.37
2023-05-22T15:10:13.945Z,60.20
2023-05-22T15:12:41.894Z,62.03
2023-05-22T15:15:14.874Z,60.30
2023-05-22T15:17:43.137Z,53.70
2023-05-22T15:20:12.436Z,60.23
2023-05-22T15:22:40.352Z,59.80
2023-05-22T15:25:09.733Z,61.23
2023-05-22T15:27:39.535Z,65.70
2023-05-22T15:30:10.181Z,66.03
2023-05-22T15:32:40.029Z,56.67
2023-05-22T15:35:09.150Z,59.67
2023-05-22T15:37:37.044Z,56.93
2023-05-22T15:40:05.961Z,55.53
2023-05-22T15:42:33.895Z,60.50
2023-05-22T15:45:01.881Z,55.93
2023-05-22T15:47:30.345Z,55.13
2023-05-22T15:50:00.206Z,54.63
2023-05-22T15:52:28.466Z,47.33
2023-05-22T15:54:57.175Z,48.57
2023-05-22T15:57:25.203Z,42.10
2023-05-22T15:59:52.891Z,42.43
2023-05-22T16:02:20.892Z,39.17
2023-05-22T16:04:49.846Z,44.73
2023-05-22T16:07:22.484Z,39.63
2023-05-22T16:09:51.255Z,40.57
2023-05-22T16:12:20.008Z,38.23
2023-05-22T16:15:24.779Z,30.60
2023-05-22T16:17:54.519Z,35.17
2023-05-22T16:20:54.767Z,32.43
2023-05-22T16:23:54.449Z,31.07
2023-05-22T16:26:26.153Z,33.70
2023-05-22T16:28:54.046Z,37.13
2023-05-22T16:31:21.914Z,28.00
2023-05-22T16:33:49.753Z,31.03
2023-05-22T16:36:17.573Z,35.23
2023-05-22T16:38:45.336Z,21.27
2023-05-22T16:41:18.288Z,22.07
2023-05-22T16:43:47.605Z,19.10
2023-05-22T16:46:15.676Z,14.33
2023-05-22T16:48:43.658Z,16.60
2023-05-22T16:51:11.637Z,19.90
2023-05-22T16:53:41.673Z,19.13
2023-05-22T16:56:09.610Z,17.90
2023-05-22T16:58:37.392Z,16.00
2023-05-22T17:01:07.365Z,19.80
2023-05-22T17:03:35.479Z,20.63
2023-05-22T17:06:03.591Z,16.13
2023-05-22T17:08:32.218Z,18.67
2023-05-22T17:11:00.446Z,22.70
2023-05-22T17:13:28.173Z,22.73
2023-05-22T17:15:56.124Z,22.67
2023-05-22T17:18:25.388Z,20.50
2023-05-22T17:20:55.699Z,24.50
2023-05-22T17:23:23.955Z,18.20
2023-05-22T17:25:51.794Z,20.03
2023-05-22T17:28:19.753Z,18.37
2023-05-22T17:30:48.218Z,23.10
2023-05-22T17:33:16.116Z,17.63
2023-05-22T17:35:46.006Z,18.00
2023-05-22T17:38:13.878Z,17.80
2023-05-22T17:40:45.687Z,20.27
2023-05-22T17:43:14.707Z,17.27
2023-05-22T17:45:44.406Z,19.80
2023-05-22T17:48:13.847Z,16.27
2023-05-22T17:50:42.747Z,20.17
2023-05-22T17:53:13.395Z,17.93
2023-05-22T17:55:41.175Z,23.17
2023-05-22T17:58:09.120Z,16.53
2023-05-22T18:00:37.200Z,22.13
2023-05-22T18:03:05.836Z,19.83
2023-05-22T18:05:33.644Z,23.20
2023-05-22T18:08:01.773Z,23.83
2023-05-22T18:10:31.046Z,25.10
2023-05-22T18:12:59.049Z,22.23
2023-05-22T18:15:26.810Z,22.97
2023-05-22T18:17:55.127Z,22.87
2023-05-22T18:20:23.040Z,19.87
2023-05-22T18:22:50.905Z,19.10
2023-05-22T18:25:18.613Z,19.27
2023-05-22T18:27:48.131Z,18.20
2023-05-22T18:30:16.298Z,18.07
2023-05-22T18:32:44.123Z,18.73
2023-05-22T18:35:12.080Z,19.97
2023-05-22T18:37:39.893Z,20.37
2023-05-22T18:40:09.602Z,15.47
2023-05-22T18:42:38.089Z,20.10
2023-05-22T18:45:08.612Z,18.77
2023-05-22T18:47:36.589Z,20.10
2023-05-22T18:50:05.350Z,16.63
2023-05-22T18:52:33.148Z,16.00
2023-05-22T18:55:00.921Z,15.70
2023-05-22T18:57:28.689Z,13.13
2023-05-22T18:59:56.452Z,13.63
2023-05-22T19:02:26.124Z,14.63
2023-05-22T19:04:54.587Z,14.40
2023-05-22T19:07:22.484Z,12.63
2023-05-22T19:09:50.701Z,13.33
2023-05-22T19:12:18.527Z,11.87
2023-05-22T19:14:48.303Z,11.67
2023-05-22T19:17:16.397Z,14.33
2023-05-22T19:19:46.527Z,9.60
2023-05-22T19:22:17.712Z,10.67
2023-05-22T19:24:46.182Z,9.33
2023-05-22T19:27:13.966Z,11.57
2023-05-22T19:29:41.823Z,9.77
2023-05-22T19:32:09.813Z,11.83
2023-05-22T19:34:37.580Z,10.87
2023-05-22T19:37:08.982Z,12.97
2023-05-22T19:39:36.850Z,11.33
2023-05-22T19:42:07.136Z,11.00
2023-05-22T19:44:34.877Z,9.10
2023-05-22T19:47:02.742Z,12.37
2023-05-22T19:49:31.549Z,10.33
2023-05-22T19:51:59.731Z,10.57
2023-05-22T19:54:29.404Z,9.37
2023-05-22T19:56:57.139Z,9.50
2023-05-22T19:59:24.893Z,9.33
2023-05-22T20:01:53.877Z,8.63
2023-05-22T20:04:22.627Z,11.47
2023-05-22T20:06:50.794Z,10.77
2023-05-22T20:09:18.650Z,10.40
2023-05-22T20:11:48.186Z,10.53
2023-05-22T20:14:16.040Z,7.93
2023-05-22T20:16:43.947Z,8.87
2023-05-22T20:19:14.249Z,10.47
2023-05-22T20:21:42.203Z,8.47
2023-05-22T20:24:12.379Z,8.00
2023-05-22T20:26:40.348Z,7.67
2023-05-22T20:29:09.765Z,7.27
2023-05-22T20:31:37.580Z,8.30
2023-05-22T20:34:06.199Z,8.03
2023-05-22T20:36:35.234Z,9.23
2023-05-22T20:39:03.430Z,10.47
2023-05-22T20:41:31.658Z,12.07
2023-05-22T20:43:59.434Z,10.07
2023-05-22T20:46:29.274Z,7.90
2023-05-22T20:48:58.307Z,9.73
2023-05-22T20:51:31.624Z,9.63
2023-05-22T20:54:00.255Z,6.57
2023-05-22T20:56:28.864Z,7.50
2023-05-22T20:58:57.246Z,7.90
2023-05-22T21:01:25.623Z,7.47
2023-05-22T21:03:56.394Z,8.63
2023-05-22T21:06:24.905Z,8.23
2023-05-22T21:08:54.286Z,10.50
2023-05-22T21:11:22.239Z,7.93
2023-05-22T21:13:50.393Z,10.13
2023-05-22T21:16:18.221Z,7.73
2023-05-22T21:18:46.169Z,9.80
2023-05-22T21:21:16.903Z,9.03
2023-05-22T21:23:44.851Z,7.53
2023-05-22T21:26:12.818Z,9.37
2023-05-22T21:28:40.887Z,10.83
2023-05-22T21:31:08.646Z,10.90
2023-05-22T21:33:36.484Z,12.53
2023-05-22T21:36:07.819Z,10.77
2023-05-22T21:38:37.011Z,11.80
2023-05-22T21:41:05.072Z,9.83
2023-05-22T21:43:32.830Z,12.33
2023-05-22T21:46:00.703Z,13.07
2023-05-22T21:48:28.448Z,13.87
2023-05-22T21:50:56.373Z,13.50
2023-05-22T21:53:24.227Z,14.13
2023-05-22T21:55:53.827Z,12.87
2023-05-22T21:58:21.821Z,16.30
2023-05-22T22:00:51.172Z,11.77
2023-05-22T22:03:19.205Z,13.63
2023-05-22T22:05:47.289Z,16.10
2023-05-22T22:08:15.040Z,14.77
2023-05-22T22:10:42.905Z,17.77
2023-05-22T22:13:12.163Z,15.97
2023-05-22T22:15:39.965Z,15.00
2023-05-22T22:18:08.424Z,14.33
2023-05-22T22:20:44.050Z,14.87
2023-05-22T22:23:13.034Z,17.77
2023-05-22T22:25:40.834Z,12.07
2023-05-22T22:28:08.634Z,15.67
2023-05-22T22:30:38.045Z,16.30
2023-05-22T22:33:06.387Z,20.47
2023-05-22T22:35:34.220Z,17.97
2023-05-22T22:38:02.117Z,16.73
2023-05-22T22:40:29.936Z,17.97
2023-05-22T22:42:57.649Z,15.03
2023-05-22T22:45:25.756Z,11.33
2023-05-22T22:47:56.445Z,12.57
2023-05-22T22:50:25.347Z,13.40
2023-05-22T22:52:53.363Z,14.00
2023-05-22T22:55:21.307Z,13.20
2023-05-22T22:57:50.106Z,12.80
2023-05-22T23:00:20.097Z,12.23
2023-05-22T23:02:48.024Z,13.43
2023-05-22T23:05:20.530Z,13.03
2023-05-22T23:07:48.682Z,13.77
2023-05-22T23:10:16.901Z,11.90
2023-05-22T23:12:44.668Z,11.77
2023-05-22T23:15:16.263Z,11.37
2023-05-22T23:17:44.217Z,10.47
2023-05-22T23:20:12.729Z,11.40
2023-05-22T23:22:41.903Z,11.03
2023-05-22T23:25:10.546Z,10.73
2023-05-22T23:27:39.187Z,11.43
2023-05-22T23:30:08.419Z,9.23
2023-05-22T23:32:36.576Z,11.93
2023-05-22T23:35:05.612Z,11.00
2023-05-22T23:37:33.619Z,11.53
2023-05-22T23:40:02.819Z,10.20
2023-05-22T23:42:30.737Z,10.77
2023-05-22T23:44:58.533Z,11.77
2023-05-22T23:47:26.730Z,12.27
2023-05-22T23:49:56.491Z,12.70
2023-05-22T23:52:24.579Z,11.33
2023-05-22T23:54:52.320Z,12.23
2023-05-22T23:57:21.477Z,11.20
2023-05-22T23:59:49.172Z,8.90
